createdAt,value
2023-05-05T00:00:15.641Z,101444.88
2023-05-05T00:02:42.278Z,101454.69
2023-05-05T00:05:08.984Z,101452.53
2023-05-05T00:07:35.364Z,101444.34
2023-05-05T00:10:01.939Z,101454.72
2023-05-05T00:12:28.627Z,101450.91
2023-05-05T00:14:55.069Z,101448.97
2023-05-05T00:17:21.719Z,101455.81
2023-05-05T00:19:48.101Z,101457.47
2023-05-05T00:22:15.279Z,101464.00
2023-05-05T00:24:41.646Z,101448.75
2023-05-05T00:27:08.030Z,101445.47
2023-05-05T00:29:34.427Z,101445.19
2023-05-05T00:32:00.882Z,101437.84
2023-05-05T00:34:27.270Z,101429.66
2023-05-05T00:36:54.097Z,101429.66
2023-05-05T00:39:20.566Z,101429.13
2023-05-05T00:41:46.923Z,101441.13
2023-05-05T00:44:13.308Z,101444.94
2023-05-05T00:46:41.717Z,101453.13
2023-05-05T00:49:08.363Z,101457.50
2023-05-05T00:51:35.048Z,101459.41
2023-05-05T00:54:01.702Z,101471.13
2023-05-05T00:56:28.480Z,101464.06
2023-05-05T00:58:55.066Z,101461.03
2023-05-05T01:01:21.545Z,101459.13
2023-05-05T01:03:48.059Z,101455.56
2023-05-05T01:06:37.603Z,101443.88
2023-05-05T01:09:17.141Z,101450.41
2023-05-05T01:11:56.347Z,101444.41
2023-05-05T01:14:36.794Z,101446.59
2023-05-05T01:17:23.921Z,101443.34
2023-05-05T01:23:06.243Z,101458.59
2023-05-05T01:26:10.385Z,101455.31
2023-05-05T01:29:23.762Z,101455.31
2023-05-05T01:31:54.612Z,101465.13
2023-05-05T01:34:26.258Z,101472.22
2023-05-05T01:36:58.283Z,101473.31
2023-05-05T01:39:30.411Z,101480.66
2023-05-05T01:41:59.988Z,101480.38
2023-05-05T01:44:28.273Z,101479.00
2023-05-05T01:46:55.762Z,101474.38
2023-05-05T01:49:22.801Z,101474.38
2023-05-05T01:51:49.954Z,101473.00
2023-05-05T01:54:18.685Z,101485.28
2023-05-05T01:56:46.369Z,101483.63
2023-05-05T01:59:13.520Z,101485.25
2023-05-05T02:01:41.797Z,101506.53
2023-05-05T02:04:12.905Z,101508.16
2023-05-05T02:06:40.364Z,101501.59
2023-05-05T02:09:08.503Z,101489.59
2023-05-05T02:11:35.155Z,101486.03
2023-05-05T02:14:02.290Z,101455.75
2023-05-05T02:16:31.098Z,101449.75
2023-05-05T02:19:01.347Z,101431.13
2023-05-05T02:21:28.608Z,101435.47
2023-05-05T02:23:55.639Z,101448.88
2023-05-05T02:26:23.694Z,101464.94
2023-05-05T02:29:12.047Z,101477.78
2023-05-05T02:31:44.296Z,101473.69
2023-05-05T02:34:13.187Z,101457.88
2023-05-05T02:36:42.357Z,101465.56
2023-05-05T02:39:26.144Z,101464.44
2023-05-05T02:41:55.215Z,101469.88
2023-05-05T02:44:24.674Z,101474.00
2023-05-05T02:46:51.820Z,101468.28
2023-05-05T02:49:18.298Z,101466.38
2023-05-05T02:51:44.675Z,101458.22
2023-05-05T02:54:11.283Z,101465.63
2023-05-05T02:56:42.944Z,101453.38
2023-05-05T02:59:29.636Z,101458.56
2023-05-05T03:02:17.804Z,101461.84
2023-05-05T03:04:51.682Z,101461.34
2023-05-05T03:07:25.630Z,101458.63
2023-05-05T03:10:03.359Z,101465.72
2023-05-05T03:12:37.478Z,101470.09
2023-05-05T03:15:08.653Z,101479.34
2023-05-05T03:17:36.734Z,101475.84
2023-05-05T03:20:06.925Z,101483.19
2023-05-05T03:22:37.420Z,101487.53
2023-05-05T03:25:05.035Z,101484.00
2023-05-05T03:27:31.514Z,101498.41
2023-05-05T03:29:57.965Z,101490.22
2023-05-05T03:32:24.450Z,101507.94
2023-05-05T03:34:50.861Z,101506.31
2023-05-05T03:37:17.219Z,101493.53
2023-05-05T03:39:43.600Z,101496.78
2023-05-05T03:42:10.006Z,101484.81
2023-05-05T03:44:36.545Z,101480.69
2023-05-05T03:47:02.958Z,101481.00
2023-05-05T03:49:29.353Z,101494.06
2023-05-05T03:51:55.718Z,101499.50
2023-05-05T03:54:22.145Z,101501.38
2023-05-05T03:56:48.587Z,101512.28
2023-05-05T03:59:14.951Z,101526.19
2023-05-05T04:01:41.489Z,101533.25
2023-05-05T04:04:09.433Z,101524.81
2023-05-05T04:06:35.939Z,101527.28
2023-05-05T04:09:02.728Z,101538.16
2023-05-05T04:11:29.187Z,101547.97
2023-05-05T04:13:55.569Z,101545.25
2023-05-05T04:16:22.027Z,101553.97
2023-05-05T04:18:48.491Z,101546.88
2023-05-05T04:21:14.939Z,101548.53
2023-05-05T04:23:41.321Z,101550.16
2023-05-05T04:26:07.773Z,101556.13
2023-05-05T04:28:34.279Z,101557.78
2023-05-05T04:31:01.379Z,101560.75
2023-05-05T04:33:27.804Z,101565.63
2023-05-05T04:35:54.182Z,101575.72
2023-05-05T04:38:21.109Z,101579.00
2023-05-05T04:40:47.568Z,101586.34
2023-05-05T04:43:13.982Z,101584.44
2023-05-05T04:45:40.376Z,101586.09
2023-05-05T04:48:06.939Z,101579.00
2023-05-05T04:50:33.322Z,101585.53
2023-05-05T04:52:59.791Z,101581.16
2023-05-05T04:55:26.190Z,101581.16
2023-05-05T04:57:52.550Z,101587.16
2023-05-05T05:00:19.070Z,101585.00
2023-05-05T05:02:45.556Z,101587.72
2023-05-05T05:05:12.185Z,101600.25
2023-05-05T05:07:38.609Z,101593.16
2023-05-05T05:10:05.730Z,101601.59
2023-05-05T05:12:32.331Z,101600.53
2023-05-05T05:14:58.793Z,101595.91
2023-05-05T05:17:26.763Z,101597.00
2023-05-05T05:19:55.140Z,101598.66
2023-05-05T05:22:21.791Z,101603.56
2023-05-05T05:24:48.168Z,101600.84
2023-05-05T05:27:14.540Z,101608.47
2023-05-05T05:29:41.012Z,101612.00
2023-05-05T05:32:07.469Z,101609.56
2023-05-05T05:34:33.933Z,101609.56
2023-05-05T05:37:00.398Z,101614.47
2023-05-05T05:39:26.861Z,101617.75
2023-05-05T05:41:53.277Z,101615.03
2023-05-05T05:44:19.834Z,101618.06
2023-05-05T05:46:46.339Z,101620.25
2023-05-05T05:49:12.868Z,101622.44
2023-05-05T05:51:39.348Z,101628.72
2023-05-05T05:54:05.783Z,101631.72
2023-05-05T05:56:32.236Z,101625.19
2023-05-05T05:58:58.679Z,101628.19
2023-05-05T06:01:25.102Z,101622.75
2023-05-05T06:03:51.672Z,101633.34
2023-05-05T06:06:18.209Z,101622.75
2023-05-05T06:08:44.666Z,101615.66
2023-05-05T06:11:11.053Z,101627.66
2023-05-05T06:13:37.506Z,101625.47
2023-05-05T06:16:04.055Z,101617.84
2023-05-05T06:18:30.420Z,101609.91
2023-05-05T06:20:57.249Z,101608.81
2023-05-05T06:23:23.745Z,101612.91
2023-05-05T06:25:50.837Z,101608.53
2023-05-05T06:28:18.655Z,101621.63
2023-05-05T06:30:45.058Z,101619.97
2023-05-05T06:33:11.420Z,101623.22
2023-05-05T06:35:37.878Z,101633.03
2023-05-05T06:38:04.350Z,101639.59
2023-05-05T06:40:31.815Z,101632.78
2023-05-05T06:42:58.190Z,101636.84
2023-05-05T06:45:24.553Z,101636.84
2023-05-05T06:47:50.976Z,101633.00
2023-05-05T06:50:17.511Z,101646.06
2023-05-05T06:52:43.941Z,101646.63
2023-05-05T06:55:10.447Z,101644.97
2023-05-05T06:57:36.821Z,101641.13
2023-05-05T07:00:09.778Z,101648.75
2023-05-05T07:02:36.482Z,101646.53
2023-05-05T07:05:03.009Z,101644.59
2023-05-05T07:07:29.437Z,101643.78
2023-05-05T07:09:55.872Z,101654.13
2023-05-05T07:12:22.452Z,101649.44
2023-05-05T07:14:48.897Z,101659.25
2023-05-05T07:17:15.463Z,101658.44
2023-05-05T07:19:41.942Z,101654.31
2023-05-05T07:22:08.345Z,101658.91
2023-05-05T07:24:34.800Z,101658.34
2023-05-05T07:27:12.425Z,101661.59
2023-05-05T07:29:38.973Z,101655.00
2023-05-05T07:32:06.640Z,101659.91
2023-05-05T07:34:34.657Z,101655.78
2023-05-05T07:37:01.363Z,101671.84
2023-05-05T07:39:27.823Z,101666.09
2023-05-05T07:42:03.686Z,101669.56
2023-05-05T07:44:30.576Z,101661.03
2023-05-05T07:46:57.046Z,101658.53
2023-05-05T07:50:18.301Z,101665.59
2023-05-05T07:53:10.806Z,101667.69
2023-05-05T07:55:41.437Z,101669.28
2023-05-05T07:58:08.536Z,101668.16
2023-05-05T08:00:35.647Z,101661.25
2023-05-05T08:03:02.141Z,101665.59
2023-05-05T08:05:29.763Z,101663.53
2023-05-05T08:07:56.726Z,101662.34
2023-05-05T08:10:28.634Z,101661.38
2023-05-05T08:12:55.120Z,101667.00
2023-05-05T08:15:21.724Z,101669.63
2023-05-05T08:17:50.800Z,101672.22
2023-05-05T08:20:21.079Z,101668.50
2023-05-05T08:22:48.022Z,101667.00
2023-05-05T08:25:21.795Z,101662.09
2023-05-05T08:27:48.273Z,101661.63
2023-05-05T08:30:16.637Z,101665.78
2023-05-05T08:32:55.158Z,101659.31
2023-05-05T08:35:23.798Z,101658.34
2023-05-05T08:37:53.396Z,101650.56
2023-05-05T08:40:21.319Z,101665.72
2023-05-05T08:42:47.914Z,101669.91
2023-05-05T08:45:14.734Z,101672.28
2023-05-05T08:47:43.204Z,101682.25
2023-05-05T08:50:11.211Z,101667.47
2023-05-05T08:52:49.818Z,101680.16
2023-05-05T08:55:25.581Z,101676.91
2023-05-05T08:57:57.929Z,101677.50
2023-05-05T09:00:26.544Z,101689.06
2023-05-05T09:02:56.222Z,101691.81
2023-05-05T09:05:22.854Z,101687.66
2023-05-05T09:07:50.299Z,101690.09
2023-05-05T09:10:17.342Z,101684.63
2023-05-05T09:12:44.205Z,101685.22
2023-05-05T09:15:12.995Z,101680.84
2023-05-05T09:17:40.376Z,101681.94
2023-05-05T09:20:08.810Z,101682.53
2023-05-05T09:22:39.165Z,101673.78
2023-05-05T09:25:07.755Z,101680.09
2023-05-05T09:27:45.768Z,101675.41
2023-05-05T09:30:15.922Z,101681.94
2023-05-05T09:32:50.083Z,101680.56
2023-05-05T09:35:18.137Z,101693.94
2023-05-05T09:37:45.256Z,101683.81
2023-05-05T09:40:14.311Z,101689.91
2023-05-05T09:42:41.257Z,101678.41
2023-05-05T09:45:20.002Z,101680.91
2023-05-05T09:47:47.762Z,101676.00
2023-05-05T09:50:16.339Z,101674.38
2023-05-05T09:52:43.306Z,101670.31
2023-05-05T09:55:18.240Z,101659.34
2023-05-05T09:57:44.620Z,101668.41
2023-05-05T10:00:12.488Z,101669.22
2023-05-05T10:02:39.627Z,101675.00
2023-05-05T10:05:19.048Z,101672.25
2023-05-05T10:07:47.557Z,101675.81
2023-05-05T10:10:17.244Z,101669.53
2023-05-05T10:12:46.252Z,101669.53
2023-05-05T10:15:15.163Z,101676.41
2023-05-05T10:18:02.301Z,101699.22
2023-05-05T10:20:33.553Z,101717.00
2023-05-05T10:23:02.479Z,101722.78
2023-05-05T10:25:33.341Z,101702.31
2023-05-05T10:28:01.475Z,101691.72
2023-05-05T10:30:31.983Z,101710.03
2023-05-05T10:33:30.318Z,101713.53
2023-05-05T10:35:57.846Z,101715.31
2023-05-05T10:38:28.358Z,101707.72
2023-05-05T10:40:56.416Z,101699.25
2023-05-05T10:43:24.259Z,101703.63
2023-05-05T10:45:51.114Z,101700.13
2023-05-05T10:48:39.773Z,101711.91
2023-05-05T10:51:35.145Z,101723.94
2023-05-05T10:54:55.728Z,101713.78
2023-05-05T10:57:25.903Z,101719.81
2023-05-05T10:59:52.291Z,101729.66
2023-05-05T11:02:20.201Z,101729.94
2023-05-05T11:05:15.220Z,101747.13
2023-05-05T11:07:42.748Z,101739.47
2023-05-05T11:10:11.449Z,101742.19
2023-05-05T11:13:01.907Z,101737.84
2023-05-05T11:15:31.388Z,101747.69
2023-05-05T11:17:59.151Z,101741.13
2023-05-05T11:20:40.527Z,101747.13
2023-05-05T11:23:06.988Z,101747.41
2023-05-05T11:25:37.204Z,101740.03
2023-05-05T11:28:09.348Z,101727.50
2023-05-05T11:30:59.662Z,101730.47
2023-05-05T11:33:33.115Z,101747.69
2023-05-05T11:36:07.566Z,101754.22
2023-05-05T11:38:55.855Z,101762.41
2023-05-05T11:41:31.976Z,101768.13
2023-05-05T11:44:12.397Z,101768.44
2023-05-05T11:47:04.421Z,101765.16
2023-05-05T11:49:32.809Z,101768.44
2023-05-05T11:52:06.569Z,101761.03
2023-05-05T11:54:35.789Z,101761.84
2023-05-05T11:57:07.619Z,101756.41
2023-05-05T11:59:39.048Z,101762.97
2023-05-05T12:02:05.877Z,101766.50
2023-05-05T12:04:32.577Z,101765.69
2023-05-05T12:06:59.412Z,101753.94
2023-05-05T12:09:26.862Z,101752.31
2023-05-05T12:11:55.400Z,101742.22
2023-05-05T12:14:22.986Z,101748.78
2023-05-05T12:17:03.407Z,101747.69
2023-05-05T12:19:33.180Z,101750.13
2023-05-05T12:22:00.732Z,101749.31
2023-05-05T12:24:27.358Z,101747.41
2023-05-05T12:26:53.789Z,101753.16
2023-05-05T12:29:29.704Z,101753.16
2023-05-05T12:31:57.947Z,101748.50
2023-05-05T12:34:24.518Z,101753.16
2023-05-05T12:36:50.945Z,101756.97
2023-05-05T12:39:17.340Z,101751.50
2023-05-05T12:41:44.191Z,101754.25
2023-05-05T12:44:10.670Z,101760.25
2023-05-05T12:46:47.405Z,101748.75
2023-05-05T12:49:14.272Z,101745.22
2023-05-05T12:51:56.260Z,101740.31
2023-05-05T12:54:24.343Z,101746.56
2023-05-05T12:56:51.212Z,101750.38
2023-05-05T12:59:24.091Z,101741.94
2023-05-05T13:02:01.357Z,101734.56
2023-05-05T13:04:28.953Z,101736.75
2023-05-05T13:07:12.980Z,101747.66
2023-05-05T13:09:39.852Z,101733.47
2023-05-05T13:12:08.523Z,101732.94
2023-05-05T13:14:35.226Z,101741.66
2023-05-05T13:17:01.765Z,101740.31
2023-05-05T13:19:28.610Z,101743.59
2023-05-05T13:21:56.572Z,101738.38
2023-05-05T13:24:34.451Z,101748.75
2023-05-05T13:27:05.574Z,101741.66
2023-05-05T13:29:32.708Z,101741.94
2023-05-05T13:31:59.515Z,101746.03
2023-05-05T13:34:26.861Z,101750.38
2023-05-05T13:36:53.321Z,101758.56
2023-05-05T13:39:19.941Z,101765.69
2023-05-05T13:41:46.459Z,101765.69
2023-05-05T13:44:13.848Z,101761.31
2023-05-05T13:46:41.692Z,101759.66
2023-05-05T13:49:08.080Z,101762.41
2023-05-05T13:51:34.902Z,101771.69
2023-05-05T13:54:01.514Z,101764.03
2023-05-05T13:56:27.936Z,101770.31
2023-05-05T13:58:54.616Z,101763.78
2023-05-05T14:01:21.109Z,101759.16
2023-05-05T14:03:47.529Z,101761.31
2023-05-05T14:06:13.914Z,101759.69
2023-05-05T14:08:40.297Z,101755.88
2023-05-05T14:11:06.737Z,101754.50
2023-05-05T14:13:33.077Z,101747.94
2023-05-05T14:15:59.536Z,101747.13
2023-05-05T14:18:25.963Z,101743.31
2023-05-05T14:20:52.335Z,101736.75
2023-05-05T14:23:18.725Z,101734.59
2023-05-05T14:25:45.256Z,101731.03
2023-05-05T14:28:11.628Z,101719.31
2023-05-05T14:30:38.954Z,101715.50
2023-05-05T14:33:05.391Z,101718.47
2023-05-05T14:35:31.832Z,101719.84
2023-05-05T14:37:58.187Z,101708.38
2023-05-05T14:40:24.540Z,101696.94
2023-05-05T14:42:51.058Z,101689.84
2023-05-05T14:45:17.468Z,101685.72
2023-05-05T14:47:43.887Z,101669.66
2023-05-05T14:50:10.817Z,101664.47
2023-05-05T14:52:39.238Z,101662.81
2023-05-05T14:55:09.674Z,101671.56
2023-05-05T14:57:36.224Z,101685.19
2023-05-05T15:00:02.764Z,101699.38
2023-05-05T15:02:29.300Z,101708.41
2023-05-05T15:04:55.764Z,101711.63
2023-05-05T15:07:22.726Z,101704.53
2023-05-05T15:09:49.148Z,101708.66
2023-05-05T15:12:15.522Z,101712.19
2023-05-05T15:14:42.208Z,101702.34
2023-05-05T15:17:08.622Z,101710.00
2023-05-05T15:19:34.970Z,101705.09
2023-05-05T15:22:01.328Z,101706.72
2023-05-05T15:24:27.708Z,101690.91
2023-05-05T15:26:54.072Z,101690.09
2023-05-05T15:29:21.129Z,101690.91
2023-05-05T15:31:47.841Z,101685.44
2023-05-05T15:34:14.478Z,101687.06
2023-05-05T15:36:41.673Z,101689.25
2023-05-05T15:39:08.286Z,101682.16
2023-05-05T15:41:46.783Z,101677.50
2023-05-05T15:44:13.400Z,101670.66
2023-05-05T15:46:41.252Z,101679.16
2023-05-05T15:49:07.738Z,101679.16
2023-05-05T15:51:36.324Z,101672.84
2023-05-05T15:54:02.779Z,101669.56
2023-05-05T15:56:29.521Z,101669.56
2023-05-05T15:58:56.674Z,101672.84
2023-05-05T16:01:30.375Z,101673.94
2023-05-05T16:04:09.906Z,101671.78
2023-05-05T16:06:36.356Z,101669.31
2023-05-05T16:09:03.820Z,101663.03
2023-05-05T16:11:30.826Z,101660.84
2023-05-05T16:14:16.534Z,101665.50
2023-05-05T16:16:49.242Z,101666.84
2023-05-05T16:19:23.387Z,101664.13
2023-05-05T16:21:49.753Z,101663.56
2023-05-05T16:24:18.455Z,101658.66
2023-05-05T16:26:46.020Z,101660.84
2023-05-05T16:29:13.519Z,101654.81
2023-05-05T16:31:52.892Z,101660.31
2023-05-05T16:34:27.533Z,101661.94
2023-05-05T16:36:56.087Z,101657.00
2023-05-05T16:39:23.558Z,101653.22
2023-05-05T16:42:05.876Z,101652.09
2023-05-05T16:44:32.301Z,101649.13
2023-05-05T16:47:01.043Z,101651.03
2023-05-05T16:49:27.432Z,101652.41
2023-05-05T16:51:54.021Z,101651.03
2023-05-05T16:54:34.743Z,101642.31
2023-05-05T16:57:02.342Z,101647.53
2023-05-05T16:59:35.922Z,101652.69
2023-05-05T17:02:02.406Z,101655.47
2023-05-05T17:04:29.988Z,101659.28
2023-05-05T17:07:16.735Z,101658.19
2023-05-05T17:09:43.149Z,101659.84
2023-05-05T17:12:09.617Z,101658.75
2023-05-05T17:14:37.213Z,101652.19
2023-05-05T17:17:13.979Z,101658.19
2023-05-05T17:19:57.065Z,101654.91
2023-05-05T17:22:23.471Z,101657.34
2023-05-05T17:24:50.824Z,101657.59
2023-05-05T17:27:17.367Z,101661.44
2023-05-05T17:29:43.824Z,101661.44
2023-05-05T17:32:10.317Z,101666.88
2023-05-05T17:34:36.915Z,101663.63
2023-05-05T17:37:03.627Z,101660.34
2023-05-05T17:39:30.773Z,101657.59
2023-05-05T17:41:57.162Z,101655.44
2023-05-05T17:44:23.702Z,101656.25
2023-05-05T17:46:50.132Z,101656.50
2023-05-05T17:49:16.637Z,101665.25
2023-05-05T17:51:43.070Z,101663.09
2023-05-05T17:54:09.441Z,101672.63
2023-05-05T17:56:37.036Z,101675.91
2023-05-05T17:59:03.611Z,101675.38
2023-05-05T18:01:30.013Z,101677.84
2023-05-05T18:03:56.446Z,101679.72
2023-05-05T18:06:22.832Z,101675.91
2023-05-05T18:08:49.400Z,101672.66
2023-05-05T18:11:15.845Z,101684.38
2023-05-05T18:13:43.145Z,101674.81
2023-05-05T18:16:09.608Z,101682.47
2023-05-05T18:18:36.214Z,101679.47
2023-05-05T18:21:02.661Z,101683.84
2023-05-05T18:23:29.039Z,101678.09
2023-05-05T18:25:55.522Z,101677.28
2023-05-05T18:28:21.997Z,101670.75
2023-05-05T18:30:48.602Z,101677.53
2023-05-05T18:33:14.982Z,101677.28
2023-05-05T18:35:41.360Z,101671.81
2023-05-05T18:38:20.172Z,101682.19
2023-05-05T18:40:55.964Z,101689.81
2023-05-05T18:43:22.527Z,101688.16
2023-05-05T18:45:48.974Z,101693.06
2023-05-05T18:48:15.385Z,101688.44
2023-05-05T18:50:41.868Z,101696.06
2023-05-05T18:53:10.714Z,101690.59
2023-05-05T18:55:37.282Z,101688.66
2023-05-05T18:58:03.687Z,101691.38
2023-05-05T19:00:30.168Z,101691.91
2023-05-05T19:02:56.812Z,101693.50
2023-05-05T19:05:23.409Z,101692.66
2023-05-05T19:07:49.795Z,101699.47
2023-05-05T19:10:16.386Z,101693.72
2023-05-05T19:12:42.901Z,101700.56
2023-05-05T19:15:09.907Z,101699.44
2023-05-05T19:17:36.810Z,101698.34
2023-05-05T19:20:03.379Z,101699.13
2023-05-05T19:22:29.758Z,101705.41
2023-05-05T19:24:56.157Z,101706.19
2023-05-05T19:27:22.563Z,101715.72
2023-05-05T19:29:52.671Z,101717.31
2023-05-05T19:32:21.120Z,101725.47
2023-05-05T19:34:48.019Z,101725.16
2023-05-05T19:37:14.515Z,101722.41
2023-05-05T19:39:43.102Z,101723.75
2023-05-05T19:42:09.708Z,101722.91
2023-05-05T19:44:36.127Z,101727.78
2023-05-05T19:47:02.611Z,101728.06
2023-05-05T19:49:29.044Z,101726.69
2023-05-05T19:51:56.989Z,101726.38
2023-05-05T19:54:24.684Z,101725.81
2023-05-05T19:56:51.875Z,101724.72
2023-05-05T19:59:18.498Z,101731.22
2023-05-05T20:01:45.317Z,101735.31
2023-05-05T20:04:11.934Z,101740.44
2023-05-05T20:06:38.560Z,101731.16
2023-05-05T20:09:05.345Z,101736.59
2023-05-05T20:11:32.007Z,101733.31
2023-05-05T20:13:58.684Z,101733.31
2023-05-05T20:16:25.644Z,101743.38
2023-05-05T20:18:52.291Z,101738.19
2023-05-05T20:21:18.993Z,101735.19
2023-05-05T20:23:46.102Z,101733.78
2023-05-05T20:26:13.177Z,101741.16
2023-05-05T20:28:45.273Z,101738.66
2023-05-05T20:31:14.931Z,101737.03
2023-05-05T20:33:41.394Z,101747.34
2023-05-05T20:36:07.945Z,101751.41
2023-05-05T20:38:34.577Z,101746.50
2023-05-05T20:41:01.326Z,101753.81
2023-05-05T20:43:27.879Z,101752.13
2023-05-05T20:45:54.304Z,101741.81
2023-05-05T20:48:20.979Z,101736.38
2023-05-05T20:50:47.468Z,101742.31
2023-05-05T20:53:14.852Z,101737.97
2023-05-05T20:55:41.529Z,101738.47
2023-05-05T20:58:07.905Z,101730.00
2023-05-05T21:00:34.544Z,101734.06
2023-05-05T21:03:02.737Z,101724.25
2023-05-05T21:05:29.761Z,101731.88
2023-05-05T21:07:57.326Z,101730.22
2023-05-05T21:10:25.016Z,101726.41
2023-05-05T21:12:51.524Z,101729.38
2023-05-05T21:15:18.026Z,101739.94
2023-05-05T21:17:44.589Z,101736.66
2023-05-05T21:20:11.877Z,101730.09
2023-05-05T21:22:38.658Z,101730.31
2023-05-05T21:25:16.805Z,101725.69
2023-05-05T21:27:43.405Z,101729.47
2023-05-05T21:30:11.454Z,101722.63
2023-05-05T21:32:38.786Z,101731.06
2023-05-05T21:35:06.749Z,101726.69
2023-05-05T21:37:33.478Z,101727.22
2023-05-05T21:39:59.893Z,101724.50
2023-05-05T21:42:26.915Z,101734.78
2023-05-05T21:44:53.304Z,101731.50
2023-05-05T21:47:19.751Z,101733.66
2023-05-05T21:49:46.166Z,101728.75
2023-05-05T21:52:12.681Z,101723.00
2023-05-05T21:54:39.096Z,101725.41
2023-05-05T21:57:06.355Z,101726.97
2023-05-05T21:59:32.768Z,101733.81
2023-05-05T22:01:59.256Z,101726.16
2023-05-05T22:04:25.731Z,101726.97
2023-05-05T22:06:52.226Z,101728.06
2023-05-05T22:09:18.778Z,101720.41
2023-05-05T22:11:45.162Z,101724.19
2023-05-05T22:14:11.542Z,101717.13
2023-05-05T22:16:38.066Z,101717.63
2023-05-05T22:19:04.585Z,101730.97
2023-05-05T22:21:31.550Z,101725.22
2023-05-05T22:23:57.975Z,101722.50
2023-05-05T22:26:24.366Z,101730.91
2023-05-05T22:28:51.053Z,101729.84
2023-05-05T22:31:17.480Z,101729.84
2023-05-05T22:33:44.277Z,101720.84
2023-05-05T22:36:11.520Z,101721.44
2023-05-05T22:38:38.031Z,101715.44
2023-05-05T22:41:06.444Z,101721.94
2023-05-05T22:43:32.869Z,101719.22
2023-05-05T22:45:59.279Z,101729.00
2023-05-05T22:48:25.724Z,101716.25
2023-05-05T22:50:52.086Z,101725.22
2023-05-05T22:53:18.460Z,101716.00
2023-05-05T22:55:44.954Z,101715.19
2023-05-05T22:58:11.554Z,101720.09
2023-05-05T23:00:37.918Z,101713.34
2023-05-05T23:03:04.591Z,101715.53
2023-05-05T23:05:31.090Z,101705.75
2023-05-05T23:07:59.924Z,101711.75
2023-05-05T23:10:26.455Z,101715.31
2023-05-05T23:12:53.843Z,101712.31
2023-05-05T23:15:21.630Z,101708.28
2023-05-05T23:17:48.177Z,101712.38
2023-05-05T23:20:15.195Z,101712.38
2023-05-05T23:22:41.663Z,101719.44
2023-05-05T23:25:08.651Z,101723.00
2023-05-05T23:27:35.222Z,101717.56
2023-05-05T23:30:01.621Z,101715.41
2023-05-05T23:32:28.053Z,101709.66
2023-05-05T23:34:54.486Z,101707.22
2023-05-05T23:37:20.919Z,101705.81
2023-05-05T23:39:47.346Z,101701.16
2023-05-05T23:42:13.728Z,101704.09
2023-05-05T23:44:40.086Z,101708.97
2023-05-05T23:47:06.455Z,101704.63
2023-05-05T23:49:32.935Z,101697.53
2023-05-05T23:51:59.309Z,101705.19
2023-05-05T23:54:26.128Z,101702.47
2023-05-05T23:56:52.491Z,101704.94
2023-05-05T23:59:19.087Z,101699.50
